createdAt,value
2024-02-16T00:02:21.601Z,5.63
2024-02-16T00:04:49.623Z,7.18
2024-02-16T00:07:17.862Z,6.20
2024-02-16T00:09:47.282Z,4.72
2024-02-16T00:12:15.999Z,6.65
2024-02-16T00:14:44.065Z,4.10
2024-02-16T00:17:12.246Z,6.22
2024-02-16T00:19:40.274Z,5.68
2024-02-16T00:22:09.552Z,5.55
2024-02-16T00:24:37.836Z,7.80
2024-02-16T00:27:07.637Z,7.38
2024-02-16T00:29:35.684Z,7.20
2024-02-16T00:32:03.715Z,5.80
2024-02-16T00:34:31.884Z,5.72
2024-02-16T00:37:00.124Z,6.97
2024-02-16T00:39:28.441Z,4.80
2024-02-16T00:41:56.597Z,9.85
2024-02-16T00:44:25.973Z,7.30
2024-02-16T00:46:53.945Z,8.05
2024-02-16T00:49:22.054Z,4.60
2024-02-16T00:51:51.636Z,6.38
2024-02-16T00:54:21.588Z,6.93
2024-02-16T00:56:49.718Z,5.93
2024-02-16T00:59:17.678Z,3.65
2024-02-16T01:01:47.943Z,8.05
2024-02-16T01:04:15.944Z,7.90
2024-02-16T01:06:43.910Z,8.40
2024-02-16T01:09:14.352Z,7.55
2024-02-16T01:11:43.501Z,5.15
2024-02-16T01:14:11.512Z,6.18
2024-02-16T01:16:39.512Z,7.93
2024-02-16T01:19:09.028Z,5.57
2024-02-16T01:21:37.187Z,5.70
2024-02-16T01:24:05.401Z,6.55
2024-02-16T01:26:34.015Z,5.80
2024-02-16T01:29:03.380Z,6.43
2024-02-16T01:31:31.482Z,7.22
2024-02-16T01:33:59.610Z,5.20
2024-02-16T01:36:29.166Z,5.97
2024-02-16T01:38:57.339Z,6.07
2024-02-16T01:41:25.335Z,5.65
2024-02-16T01:43:55.849Z,5.97
2024-02-16T01:46:24.817Z,6.35
2024-02-16T01:48:53.568Z,4.50
2024-02-16T01:51:21.982Z,7.00
2024-02-16T01:53:51.441Z,7.53
2024-02-16T01:56:21.785Z,9.98
2024-02-16T01:58:49.765Z,6.47
2024-02-16T02:01:20.528Z,5.80
2024-02-16T02:03:48.621Z,4.85
2024-02-16T02:06:16.832Z,5.80
2024-02-16T02:08:45.046Z,6.63
2024-02-16T02:11:14.423Z,8.40
2024-02-16T02:13:42.769Z,6.95
2024-02-16T02:16:12.549Z,4.63
2024-02-16T02:18:40.844Z,6.25
2024-02-16T02:21:08.928Z,13.25
2024-02-16T02:23:38.394Z,9.30
2024-02-16T02:26:06.449Z,8.02
2024-02-16T02:28:35.451Z,7.95
2024-02-16T02:31:04.297Z,5.55
2024-02-16T02:33:32.733Z,6.78
2024-02-16T02:36:00.828Z,4.97
2024-02-16T02:38:28.912Z,6.40
2024-02-16T02:40:58.295Z,7.95
2024-02-16T02:43:26.329Z,5.55
2024-02-16T02:45:54.272Z,6.25
2024-02-16T02:48:22.416Z,6.75
2024-02-16T02:50:50.466Z,6.97
2024-02-16T02:53:19.449Z,8.48
2024-02-16T02:55:47.409Z,5.05
2024-02-16T02:58:16.750Z,6.50
2024-02-16T03:00:45.908Z,5.18
2024-02-16T03:03:14.903Z,4.72
2024-02-16T03:05:44.178Z,5.13
2024-02-16T03:08:12.422Z,4.13
2024-02-16T03:10:40.404Z,4.63
2024-02-16T03:13:09.780Z,6.78
2024-02-16T03:15:39.870Z,4.70
2024-02-16T03:18:10.005Z,5.82
2024-02-16T03:20:38.632Z,5.35
2024-02-16T03:23:07.020Z,5.80
2024-02-16T03:25:35.421Z,4.53
2024-02-16T03:28:03.380Z,4.93
2024-02-16T03:30:31.530Z,5.22
2024-02-16T03:33:01.088Z,5.03
2024-02-16T03:35:29.232Z,3.80
2024-02-16T03:37:57.600Z,4.82
2024-02-16T03:40:26.925Z,4.50
2024-02-16T03:42:54.880Z,3.17
2024-02-16T03:45:23.423Z,4.00
2024-02-16T03:47:53.684Z,4.57
2024-02-16T03:50:24.151Z,4.82
2024-02-16T03:52:52.282Z,3.80
2024-02-16T03:55:21.255Z,3.53
2024-02-16T03:57:49.193Z,2.83
2024-02-16T04:00:17.756Z,3.83
2024-02-16T04:02:46.501Z,4.40
2024-02-16T04:05:14.488Z,2.70
2024-02-16T04:07:43.849Z,3.40
2024-02-16T04:10:12.057Z,4.20
2024-02-16T04:12:40.174Z,3.00
2024-02-16T04:15:08.743Z,2.10
2024-02-16T04:17:36.807Z,2.85
2024-02-16T04:20:05.283Z,2.70
2024-02-16T04:22:38.579Z,3.17
2024-02-16T04:27:36.415Z,4.20
2024-02-16T04:30:05.105Z,3.22
2024-02-16T04:32:33.900Z,3.03
2024-02-16T04:35:02.207Z,2.17
2024-02-16T04:37:30.365Z,3.30
2024-02-16T04:39:58.393Z,3.13
2024-02-16T04:42:27.813Z,4.75
2024-02-16T04:44:55.882Z,2.22
2024-02-16T04:47:23.910Z,2.05
2024-02-16T04:49:51.910Z,2.70
2024-02-16T04:52:19.934Z,3.70
2024-02-16T04:54:47.927Z,3.55
2024-02-16T04:57:15.949Z,2.78
2024-02-16T04:59:45.276Z,2.53
2024-02-16T05:02:13.523Z,3.13
2024-02-16T05:04:41.458Z,5.35
2024-02-16T05:07:09.520Z,2.60
2024-02-16T05:09:37.639Z,3.90
2024-02-16T05:12:06.192Z,2.22
2024-02-16T05:14:34.214Z,1.98
2024-02-16T05:17:03.613Z,3.67
2024-02-16T05:19:34.800Z,2.67
2024-02-16T05:22:02.859Z,4.50
2024-02-16T05:24:30.949Z,2.80
2024-02-16T05:27:00.172Z,2.63
2024-02-16T05:29:28.763Z,2.95
2024-02-16T05:31:56.734Z,5.50
2024-02-16T05:34:27.064Z,2.50
2024-02-16T05:36:55.210Z,2.42
2024-02-16T05:39:27.833Z,2.63
2024-02-16T05:41:56.063Z,2.53
2024-02-16T05:44:24.090Z,2.47
2024-02-16T05:46:52.145Z,2.42
2024-02-16T05:49:21.152Z,2.45
2024-02-16T05:52:18.439Z,2.53
2024-02-16T05:54:47.925Z,3.28
2024-02-16T05:57:16.109Z,2.88
2024-02-16T05:59:44.172Z,2.30
2024-02-16T06:02:12.696Z,1.50
2024-02-16T06:04:41.263Z,2.13
2024-02-16T06:07:12.189Z,1.48
2024-02-16T06:09:40.394Z,1.90
2024-02-16T06:12:10.652Z,2.92
2024-02-16T06:14:39.011Z,5.60
2024-02-16T06:17:06.960Z,2.38
2024-02-16T06:19:35.077Z,4.15
2024-02-16T06:22:03.146Z,2.45
2024-02-16T06:24:32.541Z,2.42
2024-02-16T06:27:00.604Z,3.47
2024-02-16T06:29:29.171Z,2.13
2024-02-16T06:31:57.191Z,2.38
2024-02-16T06:34:25.344Z,4.40
2024-02-16T06:36:53.452Z,4.93
2024-02-16T06:39:21.575Z,2.25
2024-02-16T06:41:51.395Z,2.55
2024-02-16T06:44:22.708Z,2.00
2024-02-16T06:46:52.553Z,1.83
2024-02-16T06:49:20.495Z,3.10
2024-02-16T06:51:48.675Z,3.30
2024-02-16T06:54:16.817Z,4.75
2024-02-16T06:56:45.225Z,2.17
2024-02-16T06:59:14.722Z,1.95
2024-02-16T07:01:42.822Z,3.08
2024-02-16T07:04:11.360Z,2.03
2024-02-16T07:06:39.606Z,3.45
2024-02-16T07:09:07.759Z,4.18
2024-02-16T07:11:36.713Z,3.13
2024-02-16T07:14:07.663Z,4.30
2024-02-16T07:16:37.303Z,1.90
2024-02-16T07:19:06.578Z,3.22
2024-02-16T07:21:34.839Z,3.15
2024-02-16T07:24:03.041Z,3.45
2024-02-16T07:26:31.447Z,2.55
2024-02-16T07:28:59.483Z,2.10
2024-02-16T07:31:27.475Z,2.17
2024-02-16T07:33:56.870Z,3.50
2024-02-16T07:36:24.967Z,6.57
2024-02-16T07:38:52.953Z,3.25
2024-02-16T07:41:20.982Z,3.35
2024-02-16T07:43:48.937Z,3.55
2024-02-16T07:46:17.645Z,3.60
2024-02-16T07:48:45.765Z,4.25
2024-02-16T07:51:15.172Z,3.17
2024-02-16T07:53:45.800Z,3.30
2024-02-16T07:56:13.874Z,3.58
2024-02-16T07:58:44.452Z,6.25
2024-02-16T08:01:16.429Z,3.03
2024-02-16T08:03:44.945Z,5.63
2024-02-16T08:06:13.297Z,4.47
2024-02-16T08:08:42.804Z,5.22
2024-02-16T08:11:10.751Z,7.47
2024-02-16T08:13:38.776Z,4.13
2024-02-16T08:16:08.257Z,3.17
2024-02-16T08:18:36.669Z,5.20
2024-02-16T08:21:05.118Z,3.35
2024-02-16T08:23:33.133Z,4.47
2024-02-16T08:26:02.515Z,2.22
2024-02-16T08:28:30.482Z,3.65
2024-02-16T08:30:58.410Z,6.10
2024-02-16T08:33:26.691Z,2.72
2024-02-16T08:35:54.845Z,2.95
2024-02-16T08:38:22.843Z,3.33
2024-02-16T08:40:53.120Z,5.97
2024-02-16T08:43:24.647Z,3.75
2024-02-16T08:45:52.678Z,5.75
2024-02-16T08:48:20.788Z,3.38
2024-02-16T08:50:49.402Z,2.70
2024-02-16T08:53:18.452Z,3.70
2024-02-16T08:55:47.054Z,2.65
2024-02-16T08:58:15.060Z,4.60
2024-02-16T09:00:45.451Z,3.00
2024-02-16T09:03:13.644Z,2.60
2024-02-16T09:05:41.653Z,2.25
2024-02-16T09:08:10.522Z,2.58
2024-02-16T09:10:38.820Z,3.72
2024-02-16T09:13:06.928Z,2.53
2024-02-16T09:15:35.042Z,3.17
2024-02-16T09:18:04.656Z,3.45
2024-02-16T09:20:32.777Z,3.10
2024-02-16T09:23:01.523Z,3.30
2024-02-16T09:25:29.504Z,4.57
2024-02-16T09:27:57.557Z,5.35
2024-02-16T09:30:25.606Z,2.72
2024-02-16T09:32:53.654Z,3.10
2024-02-16T09:35:23.240Z,2.15
2024-02-16T09:37:51.247Z,3.90
2024-02-16T09:40:21.318Z,1.70
2024-02-16T09:42:51.796Z,3.78
2024-02-16T09:45:20.252Z,3.47
2024-02-16T09:47:56.975Z,7.00
2024-02-16T09:50:30.711Z,1.85
2024-02-16T09:52:59.645Z,4.72
2024-02-16T09:55:28.195Z,2.47
2024-02-16T09:58:01.799Z,1.98
2024-02-16T10:00:30.118Z,2.13
2024-02-16T10:02:58.261Z,1.80
2024-02-16T10:05:26.613Z,2.53
2024-02-16T10:07:56.008Z,1.60
2024-02-16T10:10:24.548Z,2.58
2024-02-16T10:12:53.259Z,4.00
2024-02-16T10:15:23.181Z,3.50
2024-02-16T10:18:01.097Z,1.15
2024-02-16T10:20:29.354Z,3.72
2024-02-16T10:23:08.784Z,1.35
2024-02-16T10:25:37.487Z,1.50
2024-02-16T10:28:08.737Z,2.60
2024-02-16T10:30:39.444Z,2.42
2024-02-16T10:33:08.876Z,1.45
2024-02-16T10:35:37.522Z,1.02
2024-02-16T10:38:11.005Z,1.85
2024-02-16T10:40:40.781Z,1.42
2024-02-16T10:43:10.324Z,1.38
2024-02-16T10:45:40.694Z,3.05
2024-02-16T10:48:09.911Z,2.33
2024-02-16T10:50:39.388Z,4.65
2024-02-16T10:53:14.615Z,2.53
2024-02-16T10:55:44.046Z,0.98
2024-02-16T10:58:13.185Z,1.42
2024-02-16T11:00:51.520Z,1.05
2024-02-16T11:03:24.287Z,1.88
2024-02-16T11:05:52.693Z,2.22
2024-02-16T11:08:23.297Z,1.38
2024-02-16T11:10:58.176Z,1.85
2024-02-16T11:13:27.345Z,1.92
2024-02-16T11:16:02.683Z,3.55
2024-02-16T11:18:32.469Z,2.40
2024-02-16T11:21:03.400Z,4.50
2024-02-16T11:23:33.496Z,1.75
2024-02-16T11:26:04.861Z,1.42
2024-02-16T11:28:37.100Z,0.95
2024-02-16T11:31:05.990Z,1.97
2024-02-16T11:33:34.164Z,5.13
2024-02-16T11:36:03.728Z,2.30
2024-02-16T11:38:34.853Z,1.52
2024-02-16T11:41:05.200Z,2.00
2024-02-16T11:43:34.624Z,2.90
2024-02-16T11:46:13.147Z,2.38
2024-02-16T11:48:41.379Z,8.20
2024-02-16T11:51:09.731Z,3.78
2024-02-16T11:53:40.439Z,1.83
2024-02-16T11:56:08.569Z,5.88
2024-02-16T11:58:37.856Z,1.85
2024-02-16T12:01:13.239Z,2.70
2024-02-16T12:03:44.042Z,1.27
2024-02-16T12:06:22.809Z,1.83
2024-02-16T12:08:54.240Z,7.18
2024-02-16T12:11:22.553Z,2.30
2024-02-16T12:13:51.737Z,2.55
2024-02-16T12:16:21.604Z,2.00
2024-02-16T12:18:49.793Z,3.35
2024-02-16T12:21:21.841Z,2.08
2024-02-16T12:23:49.946Z,2.95
2024-02-16T12:26:19.355Z,1.95
2024-02-16T12:28:47.647Z,3.50
2024-02-16T12:31:21.007Z,2.72
2024-02-16T12:36:18.407Z,2.40
2024-02-16T12:38:46.581Z,3.80
2024-02-16T12:41:14.609Z,4.65
2024-02-16T12:43:43.943Z,2.05
2024-02-16T12:46:11.945Z,4.43
2024-02-16T12:48:40.135Z,1.90
2024-02-16T12:51:08.385Z,1.73
2024-02-16T12:53:41.849Z,1.88
2024-02-16T12:56:10.455Z,1.95
2024-02-16T12:58:38.754Z,1.60
2024-02-16T13:01:14.769Z,1.55
2024-02-16T13:03:48.187Z,3.08
2024-02-16T13:06:16.408Z,2.90
2024-02-16T13:08:44.513Z,4.80
2024-02-16T13:11:13.746Z,3.40
2024-02-16T13:13:41.914Z,3.47
2024-02-16T13:16:11.364Z,3.50
2024-02-16T13:18:39.676Z,3.80
2024-02-16T13:21:07.814Z,5.40
2024-02-16T13:23:35.831Z,1.55
2024-02-16T13:26:05.183Z,1.58
2024-02-16T13:28:34.089Z,1.90
2024-02-16T13:31:02.119Z,2.60
2024-02-16T13:33:31.729Z,3.60
2024-02-16T13:36:00.072Z,3.70
2024-02-16T13:38:28.109Z,5.85
2024-02-16T13:40:56.087Z,3.85
2024-02-16T13:43:24.351Z,4.57
2024-02-16T13:45:53.569Z,2.45
2024-02-16T13:48:22.080Z,3.00
2024-02-16T13:50:52.666Z,5.00
2024-02-16T13:53:23.907Z,1.73
2024-02-16T13:55:51.954Z,4.30
2024-02-16T13:58:19.961Z,2.28
2024-02-16T14:00:48.139Z,5.28
2024-02-16T14:03:17.286Z,8.52
2024-02-16T14:05:48.026Z,4.97
2024-02-16T14:08:18.461Z,9.00
2024-02-16T14:10:46.696Z,5.95
2024-02-16T14:13:14.660Z,3.83
2024-02-16T14:15:43.623Z,6.78
2024-02-16T14:18:15.101Z,3.15
2024-02-16T14:20:50.206Z,3.63
2024-02-16T14:23:19.514Z,2.88
2024-02-16T14:25:48.292Z,4.07
2024-02-16T14:28:16.289Z,4.20
2024-02-16T14:30:44.405Z,4.43
2024-02-16T14:33:12.993Z,2.50
2024-02-16T14:35:41.291Z,3.58
2024-02-16T14:38:09.315Z,5.28
2024-02-16T14:40:39.717Z,6.60
2024-02-16T14:43:08.608Z,6.32
2024-02-16T14:45:39.313Z,4.30
2024-02-16T14:48:08.071Z,3.42
2024-02-16T14:50:36.859Z,6.75
2024-02-16T14:53:05.044Z,2.35
2024-02-16T14:55:33.356Z,6.22
2024-02-16T14:58:02.701Z,3.20
2024-02-16T15:00:30.717Z,3.58
2024-02-16T15:03:00.805Z,5.00
2024-02-16T15:05:28.821Z,3.30
2024-02-16T15:07:56.771Z,3.63
2024-02-16T15:10:25.445Z,4.38
2024-02-16T15:12:53.501Z,3.35
2024-02-16T15:15:23.686Z,3.70
2024-02-16T15:17:51.797Z,4.07
2024-02-16T15:20:20.324Z,4.20
2024-02-16T15:22:53.042Z,3.78
2024-02-16T15:27:50.079Z,2.83
2024-02-16T15:30:18.456Z,7.43
2024-02-16T15:32:48.496Z,6.22
2024-02-16T15:35:18.090Z,3.33
2024-02-16T15:37:46.338Z,8.25
2024-02-16T15:40:15.074Z,6.40
2024-02-16T15:42:43.945Z,8.75
2024-02-16T15:45:13.229Z,6.72
2024-02-16T15:47:42.684Z,6.65
2024-02-16T15:50:12.433Z,4.35
2024-02-16T15:52:40.388Z,4.75
2024-02-16T15:55:08.964Z,2.92
2024-02-16T15:57:36.972Z,3.42
2024-02-16T16:00:07.405Z,4.38
2024-02-16T16:02:35.927Z,4.82
2024-02-16T16:05:04.496Z,3.90
2024-02-16T16:07:34.030Z,3.63
2024-02-16T16:10:02.228Z,2.80
2024-02-16T16:12:30.271Z,3.70
2024-02-16T16:14:58.433Z,4.65
2024-02-16T16:17:26.523Z,3.63
2024-02-16T16:19:57.731Z,4.57
2024-02-16T16:22:27.692Z,3.70
2024-02-16T16:24:57.041Z,4.03
2024-02-16T16:27:25.056Z,4.40
2024-02-16T16:29:53.109Z,4.97
2024-02-16T16:32:21.150Z,5.90
2024-02-16T16:34:49.259Z,8.65
2024-02-16T16:37:17.394Z,6.15
2024-02-16T16:39:45.771Z,2.50
2024-02-16T16:42:15.758Z,5.55
2024-02-16T16:44:43.821Z,6.63
2024-02-16T16:47:13.559Z,8.35
2024-02-16T16:49:42.497Z,6.95
2024-02-16T16:52:12.694Z,4.13
2024-02-16T16:54:41.386Z,3.42
2024-02-16T16:57:09.567Z,4.22
2024-02-16T16:59:39.003Z,4.85
2024-02-16T17:02:08.468Z,5.57
2024-02-16T17:04:36.507Z,4.55
2024-02-16T17:07:04.845Z,6.10
2024-02-16T17:09:33.022Z,6.00
2024-02-16T17:12:04.842Z,3.45
2024-02-16T17:14:33.513Z,7.82
2024-02-16T17:17:04.234Z,4.65
2024-02-16T17:19:32.807Z,3.58
2024-02-16T17:22:00.955Z,3.53
2024-02-16T17:24:31.764Z,3.88
2024-02-16T17:27:00.074Z,6.60
2024-02-16T17:29:28.142Z,4.82
2024-02-16T17:31:56.266Z,6.57
2024-02-16T17:34:26.143Z,6.10
2024-02-16T17:36:54.474Z,8.27
2024-02-16T17:39:23.573Z,6.22
2024-02-16T17:41:51.585Z,7.07
2024-02-16T17:44:19.714Z,4.15
2024-02-16T17:46:47.703Z,4.75
2024-02-16T17:49:15.852Z,3.08
2024-02-16T17:51:45.615Z,4.80
2024-02-16T17:54:13.662Z,3.92
2024-02-16T17:56:41.676Z,4.53
2024-02-16T17:59:09.588Z,4.20
2024-02-16T18:01:43.033Z,3.97
2024-02-16T18:04:11.251Z,4.65
2024-02-16T18:06:43.402Z,3.47
2024-02-16T18:09:13.155Z,6.70
2024-02-16T18:11:41.677Z,6.93
2024-02-16T18:14:10.567Z,5.88
2024-02-16T18:16:38.691Z,6.13
2024-02-16T18:19:06.914Z,7.60
2024-02-16T18:21:35.445Z,5.55
2024-02-16T18:24:03.621Z,4.25
2024-02-16T18:26:35.047Z,5.75
2024-02-16T18:29:03.050Z,5.25
2024-02-16T18:31:31.912Z,4.95
2024-02-16T18:34:00.249Z,4.32
2024-02-16T18:36:31.919Z,5.97
2024-02-16T18:39:00.433Z,6.32
2024-02-16T18:41:28.561Z,5.47
2024-02-16T18:43:57.954Z,6.55
2024-02-16T18:46:25.926Z,4.50
2024-02-16T18:48:54.063Z,4.85
2024-02-16T18:51:23.788Z,5.32
2024-02-16T18:53:51.808Z,4.72
2024-02-16T18:56:20.138Z,6.20
2024-02-16T18:58:48.213Z,4.30
2024-02-16T19:01:19.930Z,5.80
2024-02-16T19:03:49.502Z,4.35
2024-02-16T19:06:18.850Z,5.03
2024-02-16T19:08:46.978Z,4.60
2024-02-16T19:11:15.077Z,3.70
2024-02-16T19:13:43.115Z,6.82
2024-02-16T19:16:11.103Z,9.57
2024-02-16T19:18:40.942Z,4.32
2024-02-16T19:21:09.399Z,4.68
2024-02-16T19:23:38.036Z,6.18
2024-02-16T19:26:09.239Z,10.73
2024-02-16T19:28:40.262Z,6.32
2024-02-16T19:31:09.323Z,6.78
2024-02-16T19:33:38.129Z,7.63
2024-02-16T19:36:10.037Z,8.50
2024-02-16T19:38:38.489Z,9.13
2024-02-16T19:41:06.749Z,8.77
2024-02-16T19:43:34.930Z,4.43
2024-02-16T19:46:03.776Z,5.40
2024-02-16T19:48:32.507Z,9.18
2024-02-16T19:51:00.841Z,8.38
2024-02-16T19:53:30.312Z,5.13
2024-02-16T19:55:58.419Z,5.55
2024-02-16T19:58:27.283Z,8.45
2024-02-16T20:00:56.348Z,6.18
2024-02-16T20:03:24.610Z,6.47
2024-02-16T20:05:53.544Z,4.95
2024-02-16T20:08:22.481Z,4.93
2024-02-16T20:10:52.560Z,8.68
2024-02-16T20:13:21.757Z,4.85
2024-02-16T20:15:50.280Z,6.25
2024-02-16T20:18:20.596Z,5.50
2024-02-16T20:20:51.747Z,5.22
2024-02-16T20:23:19.720Z,7.63
2024-02-16T20:25:48.200Z,5.75
2024-02-16T20:28:18.949Z,5.38
2024-02-16T20:30:47.124Z,9.85
2024-02-16T20:33:17.260Z,10.82
2024-02-16T20:35:45.664Z,5.82
2024-02-16T20:38:13.885Z,7.93
2024-02-16T20:40:41.929Z,7.60
2024-02-16T20:43:10.287Z,8.77
2024-02-16T20:45:40.943Z,7.22
2024-02-16T20:48:09.957Z,6.75
2024-02-16T20:50:38.341Z,5.03
2024-02-16T20:53:06.859Z,5.00
2024-02-16T20:55:34.914Z,6.68
2024-02-16T20:58:04.736Z,6.53
2024-02-16T21:00:32.821Z,8.20
2024-02-16T21:03:02.249Z,6.18
2024-02-16T21:05:30.281Z,6.40
2024-02-16T21:08:01.645Z,5.80
2024-02-16T21:10:30.765Z,6.60
2024-02-16T21:12:58.815Z,7.43
2024-02-16T21:15:27.587Z,4.97
2024-02-16T21:17:55.818Z,4.68
2024-02-16T21:20:25.377Z,8.88
2024-02-16T21:22:55.858Z,6.80
2024-02-16T21:25:23.889Z,7.38
2024-02-16T21:27:51.907Z,7.65
2024-02-16T21:30:20.076Z,5.43
2024-02-16T21:32:48.203Z,5.70
2024-02-16T21:35:21.959Z,7.05
2024-02-16T21:37:52.990Z,5.70
2024-02-16T21:40:24.093Z,7.47
2024-02-16T21:42:52.172Z,8.55
2024-02-16T21:45:21.883Z,5.15
2024-02-16T21:47:50.248Z,4.78
2024-02-16T21:50:19.064Z,5.55
2024-02-16T21:52:47.307Z,6.25
2024-02-16T21:55:16.737Z,7.13
2024-02-16T21:57:44.780Z,7.43
2024-02-16T22:00:13.771Z,6.03
2024-02-16T22:02:41.794Z,5.88
2024-02-16T22:05:09.956Z,7.07
2024-02-16T22:07:38.048Z,9.45
2024-02-16T22:10:10.231Z,6.65
2024-02-16T22:12:40.138Z,9.30
2024-02-16T22:15:08.995Z,6.40
2024-02-16T22:17:37.125Z,6.00
2024-02-16T22:20:07.154Z,6.20
2024-02-16T22:22:35.129Z,5.38
2024-02-16T22:25:04.671Z,6.45
2024-02-16T22:27:32.828Z,7.50
2024-02-16T22:30:02.370Z,8.23
2024-02-16T22:32:30.498Z,6.70
2024-02-16T22:34:58.965Z,6.97
2024-02-16T22:37:28.382Z,8.48
2024-02-16T22:39:56.493Z,11.43
2024-02-16T22:42:24.476Z,5.38
2024-02-16T22:44:52.437Z,11.20
2024-02-16T22:47:21.814Z,9.52
2024-02-16T22:49:50.404Z,4.80
2024-02-16T22:52:24.337Z,9.88
2024-02-16T22:54:54.844Z,6.85
2024-02-16T22:57:22.991Z,8.23
2024-02-16T22:59:50.984Z,7.18
2024-02-16T23:02:19.071Z,7.50
2024-02-16T23:04:48.497Z,7.00
2024-02-16T23:07:18.747Z,7.07
2024-02-16T23:09:50.238Z,7.00
2024-02-16T23:12:19.266Z,7.05
2024-02-16T23:14:47.244Z,8.43
2024-02-16T23:17:15.676Z,10.07
2024-02-16T23:19:45.635Z,7.43
2024-02-16T23:22:14.919Z,7.72
2024-02-16T23:24:42.945Z,8.23
2024-02-16T23:27:10.943Z,9.40
2024-02-16T23:29:38.922Z,6.95
2024-02-16T23:32:07.596Z,8.48
2024-02-16T23:34:35.871Z,9.25
2024-02-16T23:37:04.278Z,10.77
2024-02-16T23:39:33.703Z,10.90
2024-02-16T23:42:02.480Z,12.02
2024-02-16T23:44:30.597Z,12.55
2024-02-16T23:46:58.681Z,11.35
2024-02-16T23:49:26.846Z,8.23
2024-02-16T23:51:54.837Z,9.52
2024-02-16T23:54:22.872Z,8.13
2024-02-16T23:56:52.286Z,9.85
2024-02-16T23:59:19.296Z,8.93
